Time;durP1;ratioP1;P1;durP2;ratioP2;P2;SDS_P1;SDS_P2;PMS_P1;PMS_P2;Temp;Humidity;BMP_temperature;BMP_pressure;BME280_temperature;BME280_humidity;BME280_pressure;Samples;Min_cycle;Max_cycle;Signal;HPM_P1;HPM_P2
2021/09/11 00:00:43;;;;;;;;;;;18.00;99.90;;;;;;5034601;28;19929;-71
2021/09/11 00:03:10;;;;;;;;;;;18.00;99.90;;;;;;5033671;28;20022;-71
2021/09/11 00:05:41;;;;;;;;;;;18.00;99.90;;;;;;5030470;28;20306;-71
2021/09/11 00:08:13;;;;;;;;;;;18.00;99.90;;;;;;5017820;28;20032;-72
2021/09/11 00:10:40;;;;;;;;;;;18.00;99.90;;;;;;5033610;28;19929;-71
2021/09/11 00:13:11;;;;;;;;;;;18.00;99.90;;;;;;5018455;28;20008;-71
2021/09/11 00:15:43;;;;;;;;;;;17.90;99.90;;;;;;5033601;28;19928;-72
2021/09/11 00:18:15;;;;;;;;;;;17.90;99.90;;;;;;5034979;28;20371;-72
2021/09/11 00:20:42;;;;;;;;;;;17.90;99.90;;;;;;5033759;28;20389;-72
2021/09/11 00:23:10;;;;;;;;;;;17.90;99.90;;;;;;5051977;28;20517;-72
2021/09/11 00:25:42;;;;;;;;;;;17.90;99.90;;;;;;5051511;28;19928;-73
2021/09/11 00:28:14;;;;;;;;;;;17.90;99.90;;;;;;5023652;28;19925;-72
2021/09/11 00:30:40;;;;;;;;;;;17.90;99.90;;;;;;5031810;28;19925;-72
2021/09/11 00:33:12;;;;;;;;;;;17.80;99.90;;;;;;5031689;28;19932;-72
2021/09/11 00:35:44;;;;;;;;;;;17.80;99.90;;;;;;5014385;28;20028;-72
2021/09/11 00:38:10;;;;;;;;;;;17.80;99.90;;;;;;5014057;28;19933;-72
2021/09/11 00:40:42;;;;;;;;;;;17.80;99.90;;;;;;5014725;28;20384;-72
2021/09/11 00:43:09;;;;;;;;;;;17.80;99.90;;;;;;5031634;28;20004;-72
2021/09/11 00:45:40;;;;;;;;;;;17.80;99.90;;;;;;5031165;28;19925;-72
2021/09/11 00:48:07;;;;;;;;;;;17.80;99.90;;;;;;5013834;28;20020;-72
2021/09/11 00:50:34;;;;;;;;;;;17.80;99.90;;;;;;5013870;28;20016;-72
2021/09/11 00:53:00;;;;;;;;;;;17.70;99.90;;;;;;5014267;28;20016;-72
2021/09/11 00:55:32;;;;;;;;;;;17.70;99.90;;;;;;5013313;28;20471;-72
2021/09/11 00:57:59;;;;;;;;;;;17.70;99.90;;;;;;5013874;28;19929;-72
2021/09/11 01:00:25;;;;;;;;;;;17.70;99.90;;;;;;5013246;28;19931;-72
2021/09/11 01:02:52;;;;;;;;;;;17.70;99.90;;;;;;5013125;28;20425;-72
2021/09/11 01:05:24;;;;;;;;;;;17.70;99.90;;;;;;5012794;28;20023;-72
2021/09/11 01:07:55;;;;;;;;;;;17.70;99.90;;;;;;5013951;28;20043;-72
2021/09/11 01:10:22;;;;;;;;;;;17.70;99.90;;;;;;5012960;28;19964;-72
2021/09/11 01:12:49;;;;;;;;;;;17.70;99.90;;;;;;5013222;28;19925;-72
2021/09/11 01:15:30;;;;;;;;;;;17.70;99.90;;;;;;5030425;28;19925;-72
2021/09/11 01:18:02;;;;;;;;;;;17.70;99.90;;;;;;5016961;28;19931;-72
2021/09/11 01:20:34;;;;;;;;;;;17.70;99.90;;;;;;5020218;28;19933;-72
2021/09/11 01:23:06;;;;;;;;;;;17.60;99.90;;;;;;5036438;28;19925;-72
2021/09/11 01:25:37;;;;;;;;;;;17.60;99.90;;;;;;5016939;28;19939;-72
2021/09/11 01:28:09;;;;;;;;;;;17.70;99.90;;;;;;5032713;28;19931;-72
2021/09/11 01:30:41;;;;;;;;;;;17.60;99.90;;;;;;5036517;28;20012;-72
2021/09/11 01:33:13;;;;;;;;;;;17.60;99.90;;;;;;5037040;28;20317;-73
2021/09/11 01:35:40;;;;;;;;;;;17.70;99.90;;;;;;5035815;28;19928;-72
2021/09/11 01:38:06;;;;;;;;;;;17.60;99.90;;;;;;5054524;28;19925;-73
2021/09/11 01:40:38;;;;;;;;;;;17.60;99.90;;;;;;5036890;28;19925;-73
2021/09/11 01:43:10;;;;;;;;;;;17.60;99.90;;;;;;5037042;28;20011;-73
2021/09/11 01:45:41;;;;;;;;;;;17.60;99.90;;;;;;5031810;28;19925;-72
2021/09/11 01:48:08;;;;;;;;;;;17.60;99.90;;;;;;5023065;28;19924;-73
2021/09/11 01:50:34;;;;;;;;;;;17.60;99.90;;;;;;5035913;28;20019;-72
2021/09/11 01:53:06;;;;;;;;;;;17.60;99.90;;;;;;5054172;28;20019;-73
2021/09/11 01:55:33;;;;;;;;;;;17.60;99.90;;;;;;5054136;28;20020;-72
2021/09/11 01:58:04;;;;;;;;;;;17.60;99.90;;;;;;5018542;28;20028;-73
2021/09/11 02:00:36;;;;;;;;;;;17.60;99.90;;;;;;5016805;28;20508;-73
2021/09/11 02:03:03;;;;;;;;;;;17.60;99.90;;;;;;5034410;28;19929;-73
2021/09/11 02:05:29;;;;;;;;;;;17.60;99.90;;;;;;5016085;28;20355;-72
2021/09/11 02:08:01;;;;;;;;;;;17.60;99.90;;;;;;5017509;28;19925;-73
2021/09/11 02:10:28;;;;;;;;;;;17.60;99.90;;;;;;5033353;28;20380;-72
2021/09/11 02:13:00;;;;;;;;;;;17.60;99.90;;;;;;5025900;28;19955;-72
2021/09/11 02:15:32;;;;;;;;;;;17.60;99.90;;;;;;5030578;28;20015;-73
2021/09/11 02:18:03;;;;;;;;;;;17.60;99.90;;;;;;5016408;28;20280;-72
2021/09/11 02:20:35;;;;;;;;;;;17.50;99.90;;;;;;5016229;28;19932;-73
2021/09/11 02:23:07;;;;;;;;;;;17.50;99.90;;;;;;5016261;28;19925;-72
2021/09/11 02:25:38;;;;;;;;;;;17.50;99.90;;;;;;5016801;28;20417;-73
2021/09/11 02:28:05;;;;;;;;;;;17.50;99.90;;;;;;5015555;28;20403;-72
2021/09/11 02:30:37;;;;;;;;;;;17.50;99.90;;;;;;5016208;28;20347;-72
2021/09/11 02:33:03;;;;;;;;;;;17.50;99.90;;;;;;5016184;28;19972;-73
2021/09/11 02:35:35;;;;;;;;;;;17.50;99.90;;;;;;5033324;28;20295;-72
2021/09/11 02:38:07;;;;;;;;;;;17.40;99.90;;;;;;5033869;28;19925;-73
2021/09/11 02:40:38;;;;;;;;;;;17.40;99.90;;;;;;5033810;28;19975;-72
2021/09/11 02:43:05;;;;;;;;;;;17.40;99.90;;;;;;5033575;28;20016;-73
2021/09/11 02:45:37;;;;;;;;;;;17.40;99.90;;;;;;5020939;28;19925;-73
2021/09/11 02:48:08;;;;;;;;;;;17.30;99.90;;;;;;5048893;28;19925;-72
2021/09/11 02:50:35;;;;;;;;;;;17.30;99.90;;;;;;5015833;28;20295;-72
2021/09/11 02:53:01;;;;;;;;;;;17.30;99.90;;;;;;5033456;28;20024;-73
2021/09/11 02:55:33;;;;;;;;;;;17.30;99.90;;;;;;5015061;28;19929;-72
2021/09/11 02:58:05;;;;;;;;;;;17.30;99.90;;;;;;5015752;28;19925;-72
2021/09/11 03:00:36;;;;;;;;;;;17.20;99.90;;;;;;5017502;28;19925;-73
2021/09/11 03:03:08;;;;;;;;;;;17.20;99.90;;;;;;5016500;28;19932;-73
2021/09/11 03:05:40;;;;;;;;;;;17.20;99.90;;;;;;5052549;28;20383;-72
2021/09/11 03:08:12;;;;;;;;;;;17.10;99.90;;;;;;5035183;28;19924;-72
2021/09/11 03:10:44;;;;;;;;;;;17.10;99.90;;;;;;5019494;28;19925;-73
2021/09/11 03:13:16;;;;;;;;;;;17.00;99.90;;;;;;5053152;28;20027;-72
2021/09/11 03:15:42;;;;;;;;;;;17.00;99.90;;;;;;5034676;28;20351;-73
2021/09/11 03:18:14;;;;;;;;;;;16.90;99.90;;;;;;5034006;28;19924;-72
2021/09/11 03:20:44;;;;;;;;;;;16.90;99.90;;;;;;5034748;28;19931;-72
2021/09/11 03:23:16;;;;;;;;;;;16.90;99.90;;;;;;5035858;28;20015;-72
2021/09/11 03:25:43;;;;;;;;;;;16.80;99.90;;;;;;5051609;28;19964;-73
2021/09/11 03:28:14;;;;;;;;;;;16.80;99.90;;;;;;5034721;28;20425;-73
2021/09/11 03:30:46;;;;;;;;;;;16.80;99.90;;;;;;5034693;28;19924;-73
2021/09/11 03:33:13;;;;;;;;;;;16.80;99.90;;;;;;5052598;28;20019;-73
2021/09/11 03:35:39;;;;;;;;;;;16.70;99.90;;;;;;5052137;28;19935;-72
2021/09/11 03:38:11;;;;;;;;;;;16.70;99.90;;;;;;5032657;28;20019;-73
2021/09/11 03:40:38;;;;;;;;;;;16.70;99.90;;;;;;5014742;28;19960;-72
2021/09/11 03:43:04;;;;;;;;;;;16.70;99.90;;;;;;5014896;28;20658;-72
2021/09/11 03:45:31;;;;;;;;;;;16.60;99.90;;;;;;5014230;28;20458;-73
2021/09/11 03:48:03;;;;;;;;;;;16.60;99.90;;;;;;5015763;28;19925;-72
2021/09/11 03:50:34;;;;;;;;;;;16.60;99.90;;;;;;4999150;28;19933;-72
2021/09/11 03:53:01;;;;;;;;;;;16.60;99.90;;;;;;5014831;28;20020;-74
2021/09/11 03:55:33;;;;;;;;;;;16.60;99.90;;;;;;5029977;28;20665;-72
2021/09/11 03:57:59;;;;;;;;;;;16.60;99.90;;;;;;5052126;28;20024;-73
2021/09/11 04:00:31;;;;;;;;;;;16.50;99.90;;;;;;5034332;28;19966;-72
2021/09/11 04:02:58;;;;;;;;;;;16.60;99.90;;;;;;5034161;28;19925;-73
2021/09/11 04:05:30;;;;;;;;;;;16.60;99.90;;;;;;5049816;28;20012;-72
2021/09/11 04:07:56;;;;;;;;;;;16.60;99.90;;;;;;5052003;28;20355;-73
2021/09/11 04:10:23;;;;;;;;;;;16.60;99.90;;;;;;5051786;28;20015;-73
2021/09/11 04:12:55;;;;;;;;;;;16.60;99.90;;;;;;5033874;28;19931;-73
2021/09/11 04:15:26;;;;;;;;;;;16.60;99.90;;;;;;5050758;28;20073;-73
2021/09/11 04:17:53;;;;;;;;;;;16.60;99.90;;;;;;5032635;28;20337;-73
2021/09/11 04:20:25;;;;;;;;;;;16.60;99.90;;;;;;5033526;28;20618;-72
2021/09/11 04:22:51;;;;;;;;;;;16.60;99.90;;;;;;5015950;28;19975;-73
2021/09/11 04:25:23;;;;;;;;;;;16.50;99.90;;;;;;5031389;28;19926;-72
2021/09/11 04:27:55;;;;;;;;;;;16.60;99.90;;;;;;5014226;28;19925;-72
2021/09/11 04:30:21;;;;;;;;;;;16.50;99.90;;;;;;5013964;28;20303;-73
2021/09/11 04:32:53;;;;;;;;;;;16.50;99.90;;;;;;5014992;28;19943;-73
2021/09/11 04:35:25;;;;;;;;;;;16.50;99.90;;;;;;5027255;28;19925;-73
2021/09/11 04:37:57;;;;;;;;;;;16.50;99.90;;;;;;5027602;28;20461;-73
2021/09/11 04:40:29;;;;;;;;;;;16.50;99.90;;;;;;5028197;28;20384;-73
2021/09/11 04:43:03;;;;;;;;;;;16.50;99.90;;;;;;5018879;28;20008;-73
2021/09/11 04:45:34;;;;;;;;;;;16.50;99.90;;;;;;5069507;28;19931;-73
2021/09/11 04:48:01;;;;;;;;;;;16.50;99.90;;;;;;5050994;28;19925;-72
2021/09/11 04:50:33;;;;;;;;;;;16.50;99.90;;;;;;5026978;28;19935;-73
2021/09/11 04:53:00;;;;;;;;;;;16.50;99.90;;;;;;5053640;28;20458;-73
2021/09/11 04:55:31;;;;;;;;;;;16.50;99.90;;;;;;5036934;28;19928;-74
2021/09/11 04:58:03;;;;;;;;;;;16.50;99.90;;;;;;5037995;28;19931;-73
2021/09/11 05:00:35;;;;;;;;;;;16.50;99.90;;;;;;5055315;28;19931;-73
2021/09/11 05:03:07;;;;;;;;;;;16.50;99.90;;;;;;5039317;28;19967;-73
2021/09/11 05:05:39;;;;;;;;;;;16.50;99.90;;;;;;5055753;28;19946;-72
2021/09/11 05:08:12;;;;;;;;;;;16.50;99.90;;;;;;5039571;28;19932;-72
2021/09/11 05:10:38;;;;;;;;;;;16.50;99.90;;;;;;5039757;28;20426;-72
2021/09/11 05:13:10;;;;;;;;;;;16.50;99.90;;;;;;5057507;28;19924;-72
2021/09/11 05:15:36;;;;;;;;;;;16.50;99.90;;;;;;5053395;28;20458;-72
2021/09/11 05:18:08;;;;;;;;;;;16.50;99.90;;;;;;5039728;28;19931;-72
2021/09/11 05:20:35;;;;;;;;;;;16.50;99.90;;;;;;5039821;28;20019;-72
2021/09/11 05:23:01;;;;;;;;;;;16.40;99.90;;;;;;5057757;28;20020;-72
2021/09/11 05:25:28;;;;;;;;;;;16.40;99.90;;;;;;5039424;28;20024;-72
2021/09/11 05:28:00;;;;;;;;;;;16.50;99.90;;;;;;5039179;28;19925;-72
2021/09/11 05:30:26;;;;;;;;;;;16.50;99.90;;;;;;5057651;28;19968;-72
2021/09/11 05:32:53;;;;;;;;;;;16.50;99.90;;;;;;5039992;28;20019;-73
2021/09/11 05:35:20;;;;;;;;;;;16.60;99.90;;;;;;5039296;28;19925;-72
2021/09/11 05:37:51;;;;;;;;;;;16.60;99.90;;;;;;5035930;28;19925;-71
2021/09/11 05:40:23;;;;;;;;;;;16.60;99.90;;;;;;5057591;28;19925;-71
2021/09/11 05:42:50;;;;;;;;;;;16.60;99.90;;;;;;5037637;28;20039;-71
2021/09/11 05:45:21;;;;;;;;;;;16.60;99.90;;;;;;5042163;28;19925;-71
2021/09/11 05:47:53;;;;;;;;;;;16.70;99.90;;;;;;5031930;28;19925;-71
2021/09/11 05:50:24;;;;;;;;;;;16.70;99.90;;;;;;5032178;28;19925;-72
2021/09/11 05:52:56;;;;;;;;;;;16.70;99.90;;;;;;5039677;28;20020;-71
2021/09/11 05:55:28;;;;;;;;;;;16.90;99.90;;;;;;5051157;28;19925;-71
2021/09/11 05:57:55;;;;;;;;;;;17.10;99.90;;;;;;5052234;28;19925;-72
2021/09/11 06:00:21;;;;;;;;;;;17.20;99.90;;;;;;5032759;28;20035;-72
2021/09/11 06:02:48;;;;;;;;;;;17.30;99.90;;;;;;5034735;28;19925;-71
2021/09/11 06:05:15;;;;;;;;;;;17.40;99.90;;;;;;5033802;28;20015;-71
2021/09/11 06:07:42;;;;;;;;;;;17.30;99.90;;;;;;5035008;28;19924;-72
2021/09/11 06:10:09;;;;;;;;;;;17.30;99.90;;;;;;5034910;28;19931;-71
2021/09/11 06:12:41;;;;;;;;;;;17.30;99.90;;;;;;5034420;28;19925;-71
2021/09/11 06:15:08;;;;;;;;;;;17.30;99.90;;;;;;5051910;28;20027;-71
2021/09/11 06:17:40;;;;;;;;;;;17.20;99.90;;;;;;5035503;28;19931;-72
2021/09/11 06:20:09;;;;;;;;;;;17.20;99.90;;;;;;5037208;28;20028;-71
2021/09/11 06:22:41;;;;;;;;;;;17.10;99.90;;;;;;5016321;28;19975;-71
2021/09/11 06:25:15;;;;;;;;;;;17.10;99.90;;;;;;5016621;28;19932;-71
2021/09/11 06:27:54;;;;;;;;;;;17.10;99.90;;;;;;5016314;28;20380;-71
2021/09/11 06:30:21;;;;;;;;;;;17.20;99.90;;;;;;5016216;28;20027;-71
2021/09/11 06:32:53;;;;;;;;;;;17.10;99.90;;;;;;5016154;28;20334;-72
2021/09/11 06:35:25;;;;;;;;;;;17.20;99.90;;;;;;5015728;28;20650;-71
2021/09/11 06:37:56;;;;;;;;;;;17.30;99.90;;;;;;5018040;28;19925;-71
2021/09/11 06:40:28;;;;;;;;;;;17.30;99.90;;;;;;5033519;28;20062;-71
2021/09/11 06:42:55;;;;;;;;;;;17.30;99.90;;;;;;5016029;28;19925;-71
2021/09/11 06:45:26;;;;;;;;;;;17.30;99.90;;;;;;5033235;28;20315;-71
2021/09/11 06:47:58;;;;;;;;;;;17.30;99.90;;;;;;5015954;28;19925;-71
2021/09/11 06:50:30;;;;;;;;;;;17.40;99.90;;;;;;5033528;28;19925;-71
2021/09/11 06:53:02;;;;;;;;;;;17.40;99.90;;;;;;5015858;28;19925;-71
2021/09/11 06:55:28;;;;;;;;;;;17.40;99.90;;;;;;5046460;28;20046;-71
2021/09/11 06:57:55;;;;;;;;;;;17.40;99.90;;;;;;5035450;28;19924;-71
2021/09/11 07:00:27;;;;;;;;;;;17.50;99.90;;;;;;5053168;28;19931;-71
2021/09/11 07:02:58;;;;;;;;;;;17.50;99.90;;;;;;5035397;28;20314;-71
2021/09/11 07:05:25;;;;;;;;;;;17.50;99.90;;;;;;5034868;28;20019;-71
2021/09/11 07:07:57;;;;;;;;;;;17.50;99.90;;;;;;5053145;28;19931;-72
2021/09/11 07:10:24;;;;;;;;;;;17.50;99.90;;;;;;5035157;28;20367;-72
2021/09/11 07:12:56;;;;;;;;;;;17.50;99.90;;;;;;5019018;28;19925;-72
2021/09/11 07:15:23;;;;;;;;;;;17.50;99.90;;;;;;5043836;28;20052;-72
2021/09/11 07:17:51;;;;;;;;;;;17.60;99.90;;;;;;5034780;28;19925;-72
2021/09/11 07:20:24;;;;;;;;;;;17.60;99.90;;;;;;5035163;28;20634;-72
2021/09/11 07:22:56;;;;;;;;;;;17.60;99.90;;;;;;5021699;28;20375;-73
2021/09/11 07:25:23;;;;;;;;;;;17.70;99.90;;;;;;5034084;28;20391;-72
2021/09/11 07:27:54;;;;;;;;;;;17.70;99.90;;;;;;5052674;28;19925;-72
2021/09/11 07:30:21;;;;;;;;;;;17.80;99.90;;;;;;5051918;28;19979;-72
2021/09/11 07:32:48;;;;;;;;;;;17.80;99.90;;;;;;5034595;28;19932;-72
2021/09/11 07:35:19;;;;;;;;;;;17.80;99.90;;;;;;5051821;28;20092;-72
2021/09/11 07:37:51;;;;;;;;;;;17.90;99.90;;;;;;5052338;28;19924;-72
2021/09/11 07:40:18;;;;;;;;;;;18.00;99.90;;;;;;5052024;28;20012;-72
2021/09/11 07:42:50;;;;;;;;;;;18.00;99.90;;;;;;5031816;28;20051;-73
2021/09/11 07:45:22;;;;;;;;;;;18.00;99.90;;;;;;5033881;28;19925;-72
2021/09/11 07:47:48;;;;;;;;;;;18.20;99.90;;;;;;5031439;28;20015;-73
2021/09/11 07:50:25;;;;;;;;;;;18.20;99.90;;;;;;5034848;28;19925;-73
2021/09/11 07:52:57;;;;;;;;;;;18.30;99.90;;;;;;5015640;28;19931;-71
2021/09/11 07:55:25;;;;;;;;;;;18.30;99.90;;;;;;5051497;28;19952;-72
2021/09/11 07:57:57;;;;;;;;;;;18.40;99.90;;;;;;5035164;28;19924;-71
2021/09/11 08:00:29;;;;;;;;;;;18.30;99.90;;;;;;5034017;28;19924;-72
2021/09/11 08:03:01;;;;;;;;;;;18.40;99.90;;;;;;5018542;28;19994;-73
2021/09/11 08:05:28;;;;;;;;;;;18.30;99.90;;;;;;5017097;28;19975;-72
2021/09/11 08:07:59;;;;;;;;;;;18.40;99.90;;;;;;5032592;28;19925;-73
2021/09/11 08:10:26;;;;;;;;;;;18.40;99.90;;;;;;5033844;28;20007;-72
2021/09/11 08:12:58;;;;;;;;;;;18.30;99.90;;;;;;5033487;28;20035;-73
2021/09/11 08:15:29;;;;;;;;;;;18.40;99.90;;;;;;5033443;28;19928;-73
2021/09/11 08:17:56;;;;;;;;;;;18.50;99.90;;;;;;5033765;28;20019;-72
2021/09/11 08:20:22;;;;;;;;;;;18.60;99.90;;;;;;5032498;28;20378;-72
2021/09/11 08:22:49;;;;;;;;;;;18.70;99.90;;;;;;5032769;28;20395;-72
2021/09/11 08:25:16;;;;;;;;;;;18.70;99.90;;;;;;5010560;28;20402;-72
2021/09/11 08:27:49;;;;;;;;;;;18.80;99.90;;;;;;5025235;28;21458;-72
2021/09/11 08:30:21;;;;;;;;;;;18.80;99.90;;;;;;5017919;28;19931;-72
2021/09/11 08:32:53;;;;;;;;;;;18.70;99.90;;;;;;5023873;28;19925;-72
2021/09/11 08:35:19;;;;;;;;;;;18.70;99.90;;;;;;5047022;28;20011;-72
2021/09/11 08:37:46;;;;;;;;;;;18.70;99.90;;;;;;5050897;28;19929;-72
2021/09/11 08:40:14;;;;;;;;;;;18.70;99.90;;;;;;5033836;28;19924;-73
2021/09/11 08:42:45;;;;;;;;;;;18.80;99.90;;;;;;5045682;28;19968;-72
2021/09/11 08:45:14;;;;;;;;;;;18.90;99.90;;;;;;5024793;28;19931;-72
2021/09/11 08:47:41;;;;;;;;;;;19.00;99.90;;;;;;5052857;28;19931;-72
2021/09/11 08:50:13;;;;;;;;;;;19.00;99.90;;;;;;5037365;28;19931;-72
2021/09/11 08:52:46;;;;;;;;;;;19.10;99.90;;;;;;5028449;28;19925;-72
2021/09/11 08:55:18;;;;;;;;;;;19.20;99.90;;;;;;5033526;28;19925;-73
2021/09/11 08:57:59;;;;;;;;;;;19.20;99.90;;;;;;5016481;28;19931;-72
2021/09/11 09:00:50;;;;;;;;;;;19.20;99.90;;;;;;5033998;28;20371;-72
2021/09/11 09:03:26;;;;;;;;;;;19.20;99.90;;;;;;5036755;28;19925;-72
2021/09/11 09:06:16;;;;;;;;;;;19.40;99.90;;;;;;5023921;28;19931;-72
2021/09/11 09:08:50;;;;;;;;;;;19.50;99.90;;;;;;5018202;28;19925;-73
2021/09/11 09:11:31;;;;;;;;;;;19.60;99.90;;;;;;5051366;28;19931;-73
2021/09/11 09:14:06;;;;;;;;;;;19.60;99.90;;;;;;5051313;28;19925;-72
2021/09/11 09:16:37;;;;;;;;;;;19.60;99.90;;;;;;5033167;28;20019;-72
2021/09/11 09:19:15;;;;;;;;;;;19.60;99.90;;;;;;5034415;28;19933;-72
2021/09/11 09:21:43;;;;;;;;;;;19.60;99.90;;;;;;5051102;28;20391;-73
2021/09/11 09:24:12;;;;;;;;;;;19.60;99.90;;;;;;5018665;28;20409;-73
2021/09/11 09:27:03;;;;;;;;;;;19.50;99.90;;;;;;5033400;28;19931;-72
2021/09/11 09:29:33;;;;;;;;;;;19.40;99.90;;;;;;5033231;28;19952;-72
2021/09/11 09:32:05;;;;;;;;;;;19.30;99.90;;;;;;5033311;28;19976;-73
2021/09/11 09:34:38;;;;;;;;;;;19.20;99.90;;;;;;5033687;28;19931;-73
2021/09/11 09:37:12;;;;;;;;;;;19.10;99.90;;;;;;5050997;28;19924;-72
2021/09/11 09:39:50;;;;;;;;;;;18.80;99.90;;;;;;5036797;28;19928;-72
2021/09/11 09:42:18;;;;;;;;;;;18.50;99.90;;;;;;5054961;28;19924;-72
2021/09/11 09:44:49;;;;;;;;;;;18.10;99.90;;;;;;5036104;28;20027;-72
2021/09/11 09:47:24;;;;;;;;;;;17.80;99.90;;;;;;5030217;28;19925;-72
2021/09/11 09:50:03;;;;;;;;;;;17.70;99.90;;;;;;5047667;28;20016;-73
2021/09/11 09:52:30;;;;;;;;;;;17.60;99.90;;;;;;5016954;28;20025;-73
2021/09/11 09:55:02;;;;;;;;;;;17.60;99.90;;;;;;5033746;28;19925;-73
2021/09/11 09:57:29;;;;;;;;;;;17.70;99.90;;;;;;5054482;28;19931;-73
2021/09/11 09:59:58;;;;;;;;;;;17.80;99.90;;;;;;5054379;28;20375;-73
2021/09/11 10:02:30;;;;;;;;;;;17.90;99.90;;;;;;5037845;28;19971;-72
2021/09/11 10:05:02;;;;;;;;;;;18.00;99.90;;;;;;5036911;28;19931;-72
2021/09/11 10:07:34;;;;;;;;;;;18.10;99.90;;;;;;5036408;28;19960;-72
2021/09/11 10:10:06;;;;;;;;;;;18.10;99.90;;;;;;5035851;28;20290;-72
2021/09/11 10:12:39;;;;;;;;;;;18.10;99.90;;;;;;5016714;28;20012;-72
2021/09/11 10:15:35;;;;;;;;;;;18.20;99.90;;;;;;5016079;28;19972;-73
2021/09/11 10:18:03;;;;;;;;;;;18.20;99.90;;;;;;5025241;28;20029;-72
2021/09/11 10:20:54;;;;;;;;;;;18.30;99.90;;;;;;5034194;28;20311;-73
2021/09/11 10:23:21;;;;;;;;;;;18.30;99.90;;;;;;5016439;28;20422;-72
2021/09/11 10:25:52;;;;;;;;;;;18.30;99.90;;;;;;5033678;28;19925;-72
2021/09/11 10:28:24;;;;;;;;;;;18.40;99.90;;;;;;5016304;28;20008;-73
2021/09/11 10:31:02;;;;;;;;;;;18.50;99.90;;;;;;5034060;28;19929;-72
2021/09/11 10:33:39;;;;;;;;;;;18.70;99.90;;;;;;5033988;28;19925;-73
2021/09/11 10:36:31;;;;;;;;;;;19.00;99.90;;;;;;5015596;28;20105;-72
2021/09/11 10:39:09;;;;;;;;;;;19.30;99.90;;;;;;4997429;28;19925;-72
2021/09/11 10:41:41;;;;;;;;;;;19.50;99.90;;;;;;5022389;28;20025;-72
2021/09/11 10:44:12;;;;;;;;;;;19.50;99.90;;;;;;5031073;28;19929;-72
2021/09/11 10:46:45;;;;;;;;;;;19.60;99.90;;;;;;5033961;28;19925;-72
2021/09/11 10:49:34;;;;;;;;;;;19.70;99.90;;;;;;5033367;28;19960;-72
2021/09/11 10:52:10;;;;;;;;;;;19.80;99.90;;;;;;5032155;28;19929;-72
2021/09/11 10:54:37;;;;;;;;;;;19.70;99.90;;;;;;5013772;28;19933;-72
2021/09/11 10:57:06;;;;;;;;;;;19.80;99.90;;;;;;5031953;28;20021;-71
2021/09/11 10:59:33;;;;;;;;;;;19.80;99.90;;;;;;5014462;28;20378;-73
2021/09/11 11:02:05;;;;;;;;;;;19.80;99.90;;;;;;5014795;28;19931;-72
2021/09/11 11:04:49;;;;;;;;;;;19.90;99.90;;;;;;5031394;28;20310;-72
2021/09/11 11:07:19;;;;;;;;;;;19.90;99.90;;;;;;5031813;28;19935;-72
2021/09/11 11:09:49;;;;;;;;;;;19.80;99.90;;;;;;5038763;28;20452;-73
2021/09/11 11:12:21;;;;;;;;;;;19.80;99.90;;;;;;5033130;28;19960;-73
2021/09/11 11:14:48;;;;;;;;;;;19.80;99.90;;;;;;5013186;28;19931;-73
2021/09/11 11:17:17;;;;;;;;;;;19.80;99.90;;;;;;5031988;28;20137;-73
2021/09/11 11:19:49;;;;;;;;;;;19.80;99.90;;;;;;5013792;28;19971;-73
2021/09/11 11:22:18;;;;;;;;;;;19.80;99.90;;;;;;5013938;28;19929;-73
2021/09/11 11:24:50;;;;;;;;;;;19.80;99.90;;;;;;5013486;28;19931;-72
2021/09/11 11:27:18;;;;;;;;;;;19.70;99.90;;;;;;5032998;28;19925;-73
2021/09/11 11:29:46;;;;;;;;;;;19.70;99.90;;;;;;5001456;28;20407;-73
2021/09/11 11:32:13;;;;;;;;;;;19.70;99.90;;;;;;5013607;28;20314;-73
2021/09/11 11:34:45;;;;;;;;;;;19.70;99.90;;;;;;5023564;28;20031;-73
2021/09/11 11:37:16;;;;;;;;;;;19.70;99.90;;;;;;5048247;28;19925;-72
2021/09/11 11:39:48;;;;;;;;;;;19.80;99.90;;;;;;5033055;28;19925;-73
2021/09/11 11:42:22;;;;;;;;;;;20.00;99.90;;;;;;5051213;28;19925;-72
2021/09/11 11:44:54;;;;;;;;;;;20.10;99.90;;;;;;5050765;28;19925;-73
2021/09/11 11:47:25;;;;;;;;;;;20.30;99.90;;;;;;5033313;28;19952;-73
2021/09/11 11:49:52;;;;;;;;;;;20.40;99.90;;;;;;5033003;28;20530;-73
2021/09/11 11:52:24;;;;;;;;;;;20.50;99.90;;;;;;5049414;28;20012;-73
2021/09/11 11:54:51;;;;;;;;;;;20.60;99.90;;;;;;5032697;28;19931;-73
2021/09/11 11:57:19;;;;;;;;;;;20.70;99.90;;;;;;5050996;28;19932;-73
2021/09/11 12:00:05;;;;;;;;;;;20.70;99.90;;;;;;5017355;28;19925;-73
2021/09/11 12:02:40;;;;;;;;;;;20.80;99.90;;;;;;5032563;28;19928;-73
2021/09/11 12:05:13;;;;;;;;;;;20.90;99.90;;;;;;5032502;28;20391;-73
2021/09/11 12:07:39;;;;;;;;;;;21.00;99.90;;;;;;5047667;28;20011;-73
2021/09/11 12:10:13;;;;;;;;;;;21.20;99.90;;;;;;5013392;28;20020;-73
2021/09/11 12:12:45;;;;;;;;;;;21.30;99.90;;;;;;5030576;28;20293;-73
2021/09/11 12:15:26;;;;;;;;;;;21.40;99.90;;;;;;5013194;28;20016;-73
2021/09/11 12:17:59;;;;;;;;;;;21.60;99.90;;;;;;5015167;28;19941;-72
2021/09/11 12:20:27;;;;;;;;;;;21.70;99.90;;;;;;5012746;28;19933;-73
2021/09/11 12:23:03;;;;;;;;;;;21.80;99.90;;;;;;5012085;28;20004;-74
2021/09/11 12:25:49;;;;;;;;;;;22.10;99.90;;;;;;5011967;28;19964;-73
2021/09/11 12:28:35;;;;;;;;;;;22.10;99.90;;;;;;5012053;28;20020;-73
2021/09/11 12:31:10;;;;;;;;;;;22.10;99.90;;;;;;5013513;28;19929;-72
2021/09/11 12:33:43;;;;;;;;;;;21.90;99.90;;;;;;5013066;28;20005;-73
2021/09/11 12:36:22;;;;;;;;;;;21.90;99.90;;;;;;5011724;28;20032;-73
2021/09/11 12:38:50;;;;;;;;;;;21.80;99.90;;;;;;5012562;28;19925;-73
2021/09/11 12:41:22;;;;;;;;;;;21.70;99.90;;;;;;4998866;28;19925;-72
2021/09/11 12:43:49;;;;;;;;;;;21.80;99.90;;;;;;5011865;28;19975;-73
2021/09/11 12:46:31;;;;;;;;;;;21.90;99.90;;;;;;4996196;28;19931;-73
2021/09/11 12:48:58;;;;;;;;;;;22.10;99.90;;;;;;5028791;28;20015;-73
2021/09/11 12:51:25;;;;;;;;;;;22.30;99.90;;;;;;5017038;28;19980;-73
2021/09/11 12:53:52;;;;;;;;;;;22.40;99.90;;;;;;5051514;28;20623;-73
2021/09/11 12:56:24;;;;;;;;;;;22.50;99.90;;;;;;4998941;28;19929;-73
2021/09/11 12:58:56;;;;;;;;;;;22.50;99.90;;;;;;5013453;28;19935;-73
2021/09/11 13:01:23;;;;;;;;;;;22.50;99.90;;;;;;5013784;28;19925;-73
2021/09/11 13:03:50;;;;;;;;;;;22.70;99.90;;;;;;5013980;28;20003;-73
2021/09/11 13:06:22;;;;;;;;;;;22.70;99.90;;;;;;5013352;28;20368;-73
2021/09/11 13:08:54;;;;;;;;;;;22.50;99.90;;;;;;5013529;28;19932;-73
2021/09/11 13:11:21;;;;;;;;;;;22.50;99.90;;;;;;5014914;28;19925;-73
2021/09/11 13:13:48;;;;;;;;;;;22.40;99.90;;;;;;5015911;28;20003;-73
2021/09/11 13:16:20;;;;;;;;;;;22.30;99.90;;;;;;5017069;28;20383;-72
2021/09/11 13:18:47;;;;;;;;;;;22.30;99.90;;;;;;5035213;28;20290;-73
2021/09/11 13:21:14;;;;;;;;;;;22.20;99.90;;;;;;5017515;28;20023;-73
2021/09/11 13:23:47;;;;;;;;;;;22.20;99.90;;;;;;5017695;28;20015;-73
2021/09/11 13:26:21;;;;;;;;;;;22.10;99.90;;;;;;5035949;28;19983;-73
2021/09/11 13:28:47;;;;;;;;;;;21.90;99.90;;;;;;5017314;28;20023;-73
2021/09/11 13:31:20;;;;;;;;;;;21.90;99.90;;;;;;5035020;28;19932;-73
2021/09/11 13:33:50;;;;;;;;;;;21.80;99.90;;;;;;5017523;28;20007;-72
2021/09/11 13:36:17;;;;;;;;;;;21.70;99.90;;;;;;5016899;28;19967;-73
2021/09/11 13:38:44;;;;;;;;;;;21.60;99.90;;;;;;5017455;28;19931;-73
2021/09/11 13:41:11;;;;;;;;;;;21.60;99.90;;;;;;5018547;28;19925;-73
2021/09/11 13:43:38;;;;;;;;;;;21.50;99.90;;;;;;5031960;28;20027;-72
2021/09/11 13:46:05;;;;;;;;;;;21.40;99.90;;;;;;5034937;28;19979;-73
2021/09/11 13:48:31;;;;;;;;;;;21.30;99.90;;;;;;5035661;28;19925;-73
2021/09/11 13:51:03;;;;;;;;;;;21.30;99.90;;;;;;5054661;28;20027;-73
2021/09/11 13:53:30;;;;;;;;;;;21.20;99.90;;;;;;5046989;28;19924;-73
2021/09/11 13:56:02;;;;;;;;;;;21.30;99.90;;;;;;5036744;28;20734;-73
2021/09/11 13:58:28;;;;;;;;;;;21.30;99.90;;;;;;5037188;28;20019;-73
2021/09/11 14:00:55;;;;;;;;;;;21.30;99.90;;;;;;5033513;28;19928;-73
2021/09/11 14:03:27;;;;;;;;;;;21.30;99.90;;;;;;5035559;28;20441;-73
2021/09/11 14:05:58;;;;;;;;;;;21.40;99.90;;;;;;5031083;28;19931;-73
2021/09/11 14:08:25;;;;;;;;;;;21.40;99.90;;;;;;5028715;28;20298;-73
2021/09/11 14:10:52;;;;;;;;;;;21.60;99.90;;;;;;5032123;28;20342;-73
2021/09/11 14:13:23;;;;;;;;;;;21.70;99.90;;;;;;5033377;28;19925;-72
2021/09/11 14:15:55;;;;;;;;;;;21.90;99.90;;;;;;5034475;28;19925;-72
2021/09/11 14:18:24;;;;;;;;;;;22.10;99.90;;;;;;5034891;28;19925;-73
2021/09/11 14:20:58;;;;;;;;;;;22.30;99.90;;;;;;5018096;28;19924;-72
2021/09/11 14:23:33;;;;;;;;;;;22.60;99.90;;;;;;5035304;28;19932;-73
2021/09/11 14:26:07;;;;;;;;;;;22.80;99.90;;;;;;5013781;28;19932;-73
2021/09/11 14:28:40;;;;;;;;;;;22.90;99.90;;;;;;5027697;28;19925;-73
2021/09/11 14:31:12;;;;;;;;;;;23.10;99.90;;;;;;5010858;28;19932;-73
2021/09/11 14:33:39;;;;;;;;;;;23.20;99.90;;;;;;5018365;28;19924;-73
2021/09/11 14:36:11;;;;;;;;;;;23.40;99.90;;;;;;5034709;28;20016;-73